sensor_id;sensor_type;location;lat;lon;timestamp;temperature;humidity
15044;DHT22;7619;48.562;8.910;2022-10-12T00:01:19;13.00;99.90
15044;DHT22;7619;48.562;8.910;2022-10-12T00:03:49;13.00;99.90
15044;DHT22;7619;48.562;8.910;2022-10-12T00:06:20;13.00;99.90
15044;DHT22;7619;48.562;8.910;2022-10-12T00:08:50;13.10;99.90
15044;DHT22;7619;48.562;8.910;2022-10-12T00:11:21;13.10;99.90
15044;DHT22;7619;48.562;8.910;2022-10-12T00:13:51;13.00;99.90
15044;DHT22;7619;48.562;8.910;2022-10-12T00:16:21;12.90;99.90
15044;DHT22;7619;48.562;8.910;2022-10-12T00:18:51;12.90;99.90
15044;DHT22;7619;48.562;8.910;2022-10-12T00:21:21;12.80;99.90
15044;DHT22;7619;48.562;8.910;2022-10-12T00:23:50;12.70;99.90
15044;DHT22;7619;48.562;8.910;2022-10-12T00:26:20;12.70;99.90
15044;DHT22;7619;48.562;8.910;2022-10-12T00:28:54;12.60;99.90
15044;DHT22;7619;48.562;8.910;2022-10-12T00:31:23;12.60;99.90
15044;DHT22;7619;48.562;8.910;2022-10-12T00:33:53;12.50;99.90
15044;DHT22;7619;48.562;8.910;2022-10-12T00:36:24;12.40;99.90
15044;DHT22;7619;48.562;8.910;2022-10-12T00:38:54;12.30;99.90
15044;DHT22;7619;48.562;8.910;2022-10-12T00:41:26;12.20;99.90
15044;DHT22;7619;48.562;8.910;2022-10-12T00:43:55;12.10;99.90
15044;DHT22;7619;48.562;8.910;2022-10-12T00:46:28;12.00;99.90
15044;DHT22;7619;48.562;8.910;2022-10-12T00:49:05;12.00;99.90
15044;DHT22;7619;48.562;8.910;2022-10-12T00:51:29;11.90;99.90
15044;DHT22;7619;48.562;8.910;2022-10-12T00:54:01;11.80;99.90
15044;DHT22;7619;48.562;8.910;2022-10-12T00:56:32;11.70;99.90
15044;DHT22;7619;48.562;8.910;2022-10-12T00:59:04;11.70;99.90
15044;DHT22;7619;48.562;8.910;2022-10-12T01:01:34;11.70;99.90
15044;DHT22;7619;48.562;8.910;2022-10-12T01:04:05;11.70;99.90
15044;DHT22;7619;48.562;8.910;2022-10-12T01:06:35;11.70;99.90
15044;DHT22;7619;48.562;8.910;2022-10-12T01:09:04;11.70;99.90
15044;DHT22;7619;48.562;8.910;2022-10-12T01:11:33;11.80;99.90
15044;DHT22;7619;48.562;8.910;2022-10-12T01:14:02;11.80;99.90
15044;DHT22;7619;48.562;8.910;2022-10-12T01:16:34;11.80;99.90
15044;DHT22;7619;48.562;8.910;2022-10-12T01:19:08;11.80;99.90
15044;DHT22;7619;48.562;8.910;2022-10-12T01:21:39;11.80;99.90
15044;DHT22;7619;48.562;8.910;2022-10-12T01:24:25;11.80;99.90
15044;DHT22;7619;48.562;8.910;2022-10-12T01:27:19;11.80;99.90
15044;DHT22;7619;48.562;8.910;2022-10-12T01:30:07;11.70;99.90
15044;DHT22;7619;48.562;8.910;2022-10-12T01:32:44;11.70;99.90
15044;DHT22;7619;48.562;8.910;2022-10-12T01:35:16;11.70;99.90
15044;DHT22;7619;48.562;8.910;2022-10-12T01:40:30;11.80;99.90
15044;DHT22;7619;48.562;8.910;2022-10-12T01:43:00;11.80;99.90
15044;DHT22;7619;48.562;8.910;2022-10-12T01:45:29;11.80;99.90
15044;DHT22;7619;48.562;8.910;2022-10-12T01:47:58;11.90;99.90
15044;DHT22;7619;48.562;8.910;2022-10-12T01:50:30;12.00;99.90
15044;DHT22;7619;48.562;8.910;2022-10-12T01:53:04;12.10;99.90
15044;DHT22;7619;48.562;8.910;2022-10-12T01:55:41;12.20;99.90
15044;DHT22;7619;48.562;8.910;2022-10-12T02:01:19;12.30;99.90
15044;DHT22;7619;48.562;8.910;2022-10-12T02:03:53;12.20;99.90
15044;DHT22;7619;48.562;8.910;2022-10-12T02:06:22;12.30;99.90
15044;DHT22;7619;48.562;8.910;2022-10-12T02:08:54;12.30;99.90
15044;DHT22;7619;48.562;8.910;2022-10-12T02:11:26;12.30;99.90
15044;DHT22;7619;48.562;8.910;2022-10-12T02:13:57;12.30;99.90
15044;DHT22;7619;48.562;8.910;2022-10-12T02:16:30;12.20;99.90
15044;DHT22;7619;48.562;8.910;2022-10-12T02:18:59;12.20;99.90
15044;DHT22;7619;48.562;8.910;2022-10-12T02:21:31;12.10;99.90
15044;DHT22;7619;48.562;8.910;2022-10-12T02:26:41;12.10;99.90
15044;DHT22;7619;48.562;8.910;2022-10-12T02:29:12;12.10;99.90
15044;DHT22;7619;48.562;8.910;2022-10-12T02:31:46;12.10;99.90
15044;DHT22;7619;48.562;8.910;2022-10-12T02:34:17;12.20;99.90
15044;DHT22;7619;48.562;8.910;2022-10-12T02:36:48;12.20;99.90
15044;DHT22;7619;48.562;8.910;2022-10-12T02:39:22;12.30;99.90
15044;DHT22;7619;48.562;8.910;2022-10-12T02:41:53;12.30;99.90
15044;DHT22;7619;48.562;8.910;2022-10-12T02:47:02;12.30;99.90
15044;DHT22;7619;48.562;8.910;2022-10-12T02:49:32;12.40;99.90
15044;DHT22;7619;48.562;8.910;2022-10-12T02:52:02;12.40;99.90
15044;DHT22;7619;48.562;8.910;2022-10-12T02:54:31;12.30;99.90
15044;DHT22;7619;48.562;8.910;2022-10-12T02:57:00;12.30;99.90
15044;DHT22;7619;48.562;8.910;2022-10-12T02:59:29;12.40;99.90
15044;DHT22;7619;48.562;8.910;2022-10-12T03:01:58;12.30;99.90
15044;DHT22;7619;48.562;8.910;2022-10-12T03:04:27;12.20;99.90
15044;DHT22;7619;48.562;8.910;2022-10-12T03:06:56;12.20;99.90
15044;DHT22;7619;48.562;8.910;2022-10-12T03:09:25;12.20;99.90
15044;DHT22;7619;48.562;8.910;2022-10-12T03:11:54;12.20;99.90
15044;DHT22;7619;48.562;8.910;2022-10-12T03:14:23;12.20;99.90
15044;DHT22;7619;48.562;8.910;2022-10-12T03:16:53;12.20;99.90
15044;DHT22;7619;48.562;8.910;2022-10-12T03:19:22;12.20;99.90
15044;DHT22;7619;48.562;8.910;2022-10-12T03:21:50;12.20;99.90
15044;DHT22;7619;48.562;8.910;2022-10-12T03:24:19;12.20;99.90
15044;DHT22;7619;48.562;8.910;2022-10-12T03:26:48;12.20;99.90
15044;DHT22;7619;48.562;8.910;2022-10-12T03:29:17;12.20;99.90
15044;DHT22;7619;48.562;8.910;2022-10-12T03:31:46;12.20;99.90
15044;DHT22;7619;48.562;8.910;2022-10-12T03:34:15;12.20;99.90
15044;DHT22;7619;48.562;8.910;2022-10-12T03:36:44;12.30;99.90
15044;DHT22;7619;48.562;8.910;2022-10-12T03:39:13;12.30;99.90
15044;DHT22;7619;48.562;8.910;2022-10-12T03:41:41;12.20;99.90
15044;DHT22;7619;48.562;8.910;2022-10-12T03:44:10;12.20;99.90
15044;DHT22;7619;48.562;8.910;2022-10-12T03:46:39;12.30;99.90
15044;DHT22;7619;48.562;8.910;2022-10-12T03:49:08;12.30;99.90
15044;DHT22;7619;48.562;8.910;2022-10-12T03:51:37;12.30;99.90
15044;DHT22;7619;48.562;8.910;2022-10-12T03:54:06;12.30;99.90
15044;DHT22;7619;48.562;8.910;2022-10-12T03:56:34;12.30;99.90
15044;DHT22;7619;48.562;8.910;2022-10-12T03:59:04;12.30;99.90
15044;DHT22;7619;48.562;8.910;2022-10-12T04:01:33;12.30;99.90
15044;DHT22;7619;48.562;8.910;2022-10-12T04:04:02;12.30;99.90
15044;DHT22;7619;48.562;8.910;2022-10-12T04:06:31;12.30;99.90
15044;DHT22;7619;48.562;8.910;2022-10-12T04:09:00;12.30;99.90
15044;DHT22;7619;48.562;8.910;2022-10-12T04:11:28;12.30;99.90
15044;DHT22;7619;48.562;8.910;2022-10-12T04:13:57;12.30;99.90
15044;DHT22;7619;48.562;8.910;2022-10-12T04:16:26;12.30;99.90
15044;DHT22;7619;48.562;8.910;2022-10-12T04:18:55;12.30;99.90
15044;DHT22;7619;48.562;8.910;2022-10-12T04:21:24;12.30;99.90
15044;DHT22;7619;48.562;8.910;2022-10-12T04:23:53;12.40;99.90
15044;DHT22;7619;48.562;8.910;2022-10-12T04:26:22;12.40;99.90
15044;DHT22;7619;48.562;8.910;2022-10-12T04:28:50;12.50;99.90
15044;DHT22;7619;48.562;8.910;2022-10-12T04:31:19;12.40;99.90
15044;DHT22;7619;48.562;8.910;2022-10-12T04:33:48;12.40;99.90
15044;DHT22;7619;48.562;8.910;2022-10-12T04:36:17;12.40;99.90
15044;DHT22;7619;48.562;8.910;2022-10-12T04:38:45;12.40;99.90
15044;DHT22;7619;48.562;8.910;2022-10-12T04:41:14;12.40;99.90
15044;DHT22;7619;48.562;8.910;2022-10-12T04:44:02;12.30;99.90
15044;DHT22;7619;48.562;8.910;2022-10-12T04:46:31;12.30;99.90
15044;DHT22;7619;48.562;8.910;2022-10-12T04:48:59;12.30;99.90
15044;DHT22;7619;48.562;8.910;2022-10-12T04:51:29;12.40;99.90
15044;DHT22;7619;48.562;8.910;2022-10-12T04:53:58;12.40;99.90
15044;DHT22;7619;48.562;8.910;2022-10-12T04:56:26;12.40;99.90
15044;DHT22;7619;48.562;8.910;2022-10-12T04:58:55;12.40;99.90
15044;DHT22;7619;48.562;8.910;2022-10-12T05:01:24;12.40;99.90
15044;DHT22;7619;48.562;8.910;2022-10-12T05:03:53;12.40;99.90
15044;DHT22;7619;48.562;8.910;2022-10-12T05:06:21;12.40;99.90
15044;DHT22;7619;48.562;8.910;2022-10-12T05:08:51;12.40;99.90
15044;DHT22;7619;48.562;8.910;2022-10-12T05:11:19;12.40;99.90
15044;DHT22;7619;48.562;8.910;2022-10-12T05:13:48;12.40;99.90
15044;DHT22;7619;48.562;8.910;2022-10-12T05:16:17;12.40;99.90
15044;DHT22;7619;48.562;8.910;2022-10-12T05:18:46;12.40;99.90
15044;DHT22;7619;48.562;8.910;2022-10-12T05:21:14;12.50;99.90
15044;DHT22;7619;48.562;8.910;2022-10-12T05:23:43;12.40;99.90
15044;DHT22;7619;48.562;8.910;2022-10-12T05:26:12;12.40;99.90
15044;DHT22;7619;48.562;8.910;2022-10-12T05:28:41;12.40;99.90
15044;DHT22;7619;48.562;8.910;2022-10-12T05:31:10;12.40;99.90
15044;DHT22;7619;48.562;8.910;2022-10-12T05:33:38;12.40;99.90
15044;DHT22;7619;48.562;8.910;2022-10-12T05:36:08;12.40;99.90
15044;DHT22;7619;48.562;8.910;2022-10-12T05:41:15;12.40;99.90
15044;DHT22;7619;48.562;8.910;2022-10-12T05:43:44;12.40;99.90
15044;DHT22;7619;48.562;8.910;2022-10-12T05:46:13;12.40;99.90
15044;DHT22;7619;48.562;8.910;2022-10-12T05:48:42;12.40;99.90
15044;DHT22;7619;48.562;8.910;2022-10-12T05:51:11;12.40;99.90
15044;DHT22;7619;48.562;8.910;2022-10-12T05:53:40;12.40;99.90
15044;DHT22;7619;48.562;8.910;2022-10-12T05:56:09;12.40;99.90
15044;DHT22;7619;48.562;8.910;2022-10-12T05:58:38;12.40;99.90
15044;DHT22;7619;48.562;8.910;2022-10-12T06:01:09;12.40;99.90
15044;DHT22;7619;48.562;8.910;2022-10-12T06:03:39;12.50;99.90
15044;DHT22;7619;48.562;8.910;2022-10-12T06:06:08;12.50;99.90
15044;DHT22;7619;48.562;8.910;2022-10-12T06:08:40;12.50;99.90
15044;DHT22;7619;48.562;8.910;2022-10-12T06:11:09;12.50;99.90
15044;DHT22;7619;48.562;8.910;2022-10-12T06:13:39;12.50;99.90
15044;DHT22;7619;48.562;8.910;2022-10-12T06:16:08;12.50;99.90
15044;DHT22;7619;48.562;8.910;2022-10-12T06:18:37;12.50;99.90
15044;DHT22;7619;48.562;8.910;2022-10-12T06:21:07;12.50;99.90
15044;DHT22;7619;48.562;8.910;2022-10-12T06:23:36;12.50;99.90
15044;DHT22;7619;48.562;8.910;2022-10-12T06:26:06;12.50;99.90
15044;DHT22;7619;48.562;8.910;2022-10-12T06:28:35;12.50;99.90
15044;DHT22;7619;48.562;8.910;2022-10-12T06:33:43;12.50;99.90
15044;DHT22;7619;48.562;8.910;2022-10-12T06:36:12;12.50;99.90
15044;DHT22;7619;48.562;8.910;2022-10-12T06:38:42;12.60;99.90
15044;DHT22;7619;48.562;8.910;2022-10-12T06:41:13;12.60;99.90
15044;DHT22;7619;48.562;8.910;2022-10-12T06:43:43;12.60;99.90
15044;DHT22;7619;48.562;8.910;2022-10-12T06:46:12;12.70;99.90
15044;DHT22;7619;48.562;8.910;2022-10-12T06:48:46;12.70;99.90
15044;DHT22;7619;48.562;8.910;2022-10-12T06:51:16;12.70;99.90
15044;DHT22;7619;48.562;8.910;2022-10-12T06:53:45;12.70;99.90
15044;DHT22;7619;48.562;8.910;2022-10-12T06:56:14;12.80;99.90
15044;DHT22;7619;48.562;8.910;2022-10-12T06:58:43;12.90;99.90
15044;DHT22;7619;48.562;8.910;2022-10-12T07:01:12;12.90;99.90
15044;DHT22;7619;48.562;8.910;2022-10-12T07:03:42;12.90;99.90
15044;DHT22;7619;48.562;8.910;2022-10-12T07:06:12;13.00;99.90
15044;DHT22;7619;48.562;8.910;2022-10-12T07:08:43;13.00;99.90
15044;DHT22;7619;48.562;8.910;2022-10-12T07:11:12;13.10;99.90
15044;DHT22;7619;48.562;8.910;2022-10-12T07:13:42;13.20;99.90
15044;DHT22;7619;48.562;8.910;2022-10-12T07:16:11;13.40;99.90
15044;DHT22;7619;48.562;8.910;2022-10-12T07:18:39;13.40;99.90
15044;DHT22;7619;48.562;8.910;2022-10-12T07:21:08;13.50;99.90
15044;DHT22;7619;48.562;8.910;2022-10-12T07:23:37;13.60;99.90
15044;DHT22;7619;48.562;8.910;2022-10-12T07:26:07;13.60;99.90
15044;DHT22;7619;48.562;8.910;2022-10-12T07:28:36;13.70;99.90
15044;DHT22;7619;48.562;8.910;2022-10-12T07:31:06;13.70;99.90
15044;DHT22;7619;48.562;8.910;2022-10-12T07:33:37;13.70;99.90
15044;DHT22;7619;48.562;8.910;2022-10-12T07:36:07;13.80;99.90
15044;DHT22;7619;48.562;8.910;2022-10-12T07:38:36;13.90;99.90
15044;DHT22;7619;48.562;8.910;2022-10-12T07:41:06;13.90;99.90
15044;DHT22;7619;48.562;8.910;2022-10-12T07:43:34;14.00;99.90
15044;DHT22;7619;48.562;8.910;2022-10-12T07:46:04;14.10;99.90
15044;DHT22;7619;48.562;8.910;2022-10-12T07:48:33;14.10;99.90
15044;DHT22;7619;48.562;8.910;2022-10-12T07:53:43;14.30;99.90
15044;DHT22;7619;48.562;8.910;2022-10-12T07:56:13;14.40;99.90
15044;DHT22;7619;48.562;8.910;2022-10-12T07:58:42;14.50;99.90
15044;DHT22;7619;48.562;8.910;2022-10-12T08:01:13;14.60;99.90
15044;DHT22;7619;48.562;8.910;2022-10-12T08:03:41;14.80;99.90
15044;DHT22;7619;48.562;8.910;2022-10-12T08:06:12;14.80;99.90
15044;DHT22;7619;48.562;8.910;2022-10-12T08:08:41;14.80;99.90
15044;DHT22;7619;48.562;8.910;2022-10-12T08:11:11;14.70;99.90
15044;DHT22;7619;48.562;8.910;2022-10-12T08:13:41;14.70;99.90
15044;DHT22;7619;48.562;8.910;2022-10-12T08:16:12;14.60;99.90
15044;DHT22;7619;48.562;8.910;2022-10-12T08:18:42;14.70;99.90
15044;DHT22;7619;48.562;8.910;2022-10-12T08:21:13;14.70;99.90
15044;DHT22;7619;48.562;8.910;2022-10-12T08:23:43;14.80;99.90
15044;DHT22;7619;48.562;8.910;2022-10-12T08:26:14;14.90;99.90
15044;DHT22;7619;48.562;8.910;2022-10-12T08:28:43;15.00;99.90
15044;DHT22;7619;48.562;8.910;2022-10-12T08:31:14;15.00;99.90
15044;DHT22;7619;48.562;8.910;2022-10-12T08:33:44;15.10;99.90
15044;DHT22;7619;48.562;8.910;2022-10-12T08:36:13;15.20;99.90
15044;DHT22;7619;48.562;8.910;2022-10-12T08:38:42;15.20;99.90
15044;DHT22;7619;48.562;8.910;2022-10-12T08:41:20;15.20;99.90
15044;DHT22;7619;48.562;8.910;2022-10-12T08:43:59;15.10;99.90
15044;DHT22;7619;48.562;8.910;2022-10-12T08:46:29;15.10;99.90
15044;DHT22;7619;48.562;8.910;2022-10-12T08:49:00;15.20;99.90
15044;DHT22;7619;48.562;8.910;2022-10-12T08:51:43;15.10;99.90
15044;DHT22;7619;48.562;8.910;2022-10-12T08:54:05;15.20;99.90
15044;DHT22;7619;48.562;8.910;2022-10-12T08:56:35;15.30;99.90
15044;DHT22;7619;48.562;8.910;2022-10-12T08:59:07;15.30;99.90
15044;DHT22;7619;48.562;8.910;2022-10-12T09:01:38;15.40;99.90
15044;DHT22;7619;48.562;8.910;2022-10-12T09:04:18;15.40;99.90
15044;DHT22;7619;48.562;8.910;2022-10-12T09:09:36;15.40;99.90
15044;DHT22;7619;48.562;8.910;2022-10-12T09:12:16;15.30;99.90
15044;DHT22;7619;48.562;8.910;2022-10-12T09:14:46;15.40;99.90
15044;DHT22;7619;48.562;8.910;2022-10-12T09:20:05;15.40;99.90
15044;DHT22;7619;48.562;8.910;2022-10-12T09:22:35;15.50;99.90
15044;DHT22;7619;48.562;8.910;2022-10-12T09:25:11;15.50;99.90
15044;DHT22;7619;48.562;8.910;2022-10-12T09:27:44;15.60;99.90
15044;DHT22;7619;48.562;8.910;2022-10-12T09:30:15;15.80;99.90
15044;DHT22;7619;48.562;8.910;2022-10-12T09:33:10;15.60;99.90
15044;DHT22;7619;48.562;8.910;2022-10-12T09:35:40;15.70;99.90
15044;DHT22;7619;48.562;8.910;2022-10-12T09:38:10;15.80;99.90
15044;DHT22;7619;48.562;8.910;2022-10-12T09:40:40;15.90;99.90
15044;DHT22;7619;48.562;8.910;2022-10-12T09:43:09;16.00;99.90
15044;DHT22;7619;48.562;8.910;2022-10-12T09:45:38;16.00;99.90
15044;DHT22;7619;48.562;8.910;2022-10-12T09:48:14;16.10;99.90
15044;DHT22;7619;48.562;8.910;2022-10-12T09:50:47;16.20;99.90
15044;DHT22;7619;48.562;8.910;2022-10-12T09:53:23;16.20;99.90
15044;DHT22;7619;48.562;8.910;2022-10-12T09:55:56;16.20;99.90
15044;DHT22;7619;48.562;8.910;2022-10-12T09:58:29;16.20;99.90
15044;DHT22;7619;48.562;8.910;2022-10-12T10:01:22;16.30;99.90
15044;DHT22;7619;48.562;8.910;2022-10-12T10:04:10;16.60;99.90
15044;DHT22;7619;48.562;8.910;2022-10-12T10:06:41;16.70;99.90
15044;DHT22;7619;48.562;8.910;2022-10-12T10:12:20;16.90;1.00
15044;DHT22;7619;48.562;8.910;2022-10-12T10:14:52;16.90;99.90
15044;DHT22;7619;48.562;8.910;2022-10-12T10:17:26;17.10;1.00
15044;DHT22;7619;48.562;8.910;2022-10-12T10:19:57;17.10;1.00
15044;DHT22;7619;48.562;8.910;2022-10-12T10:22:26;16.90;1.00
15044;DHT22;7619;48.562;8.910;2022-10-12T10:24:57;16.80;99.90
15044;DHT22;7619;48.562;8.910;2022-10-12T10:27:31;16.70;99.90
15044;DHT22;7619;48.562;8.910;2022-10-12T10:30:18;16.70;1.00
15044;DHT22;7619;48.562;8.910;2022-10-12T10:32:48;16.90;1.00
15044;DHT22;7619;48.562;8.910;2022-10-12T10:35:20;16.90;99.90
15044;DHT22;7619;48.562;8.910;2022-10-12T10:42:51;17.20;99.90
15044;DHT22;7619;48.562;8.910;2022-10-12T10:45:24;17.20;1.00
15044;DHT22;7619;48.562;8.910;2022-10-12T10:47:54;17.10;99.90
15044;DHT22;7619;48.562;8.910;2022-10-12T10:50:28;17.20;99.90
15044;DHT22;7619;48.562;8.910;2022-10-12T10:52:59;17.30;1.00
15044;DHT22;7619;48.562;8.910;2022-10-12T10:55:40;17.40;99.90
15044;DHT22;7619;48.562;8.910;2022-10-12T11:20:51;18.20;99.90
15044;DHT22;7619;48.562;8.910;2022-10-12T11:23:30;18.20;1.00
15044;DHT22;7619;48.562;8.910;2022-10-12T11:36:22;18.00;1.00
15044;DHT22;7619;48.562;8.910;2022-10-12T13:15:59;18.30;1.00
15044;DHT22;7619;48.562;8.910;2022-10-12T13:23:49;18.10;1.00
15044;DHT22;7619;48.562;8.910;2022-10-12T13:26:22;18.40;1.00
15044;DHT22;7619;48.562;8.910;2022-10-12T13:31:31;18.80;1.00
15044;DHT22;7619;48.562;8.910;2022-10-12T13:34:08;19.40;99.90
15044;DHT22;7619;48.562;8.910;2022-10-12T13:36:45;19.70;99.90
15044;DHT22;7619;48.562;8.910;2022-10-12T13:39:16;19.90;99.90
15044;DHT22;7619;48.562;8.910;2022-10-12T13:44:25;19.70;99.90
15044;DHT22;7619;48.562;8.910;2022-10-12T13:52:16;19.70;99.90
15044;DHT22;7619;48.562;8.910;2022-10-12T13:54:46;19.60;99.90
15044;DHT22;7619;48.562;8.910;2022-10-12T13:59:56;19.40;99.90
15044;DHT22;7619;48.562;8.910;2022-10-12T14:05:04;19.20;60.20
15044;DHT22;7619;48.562;8.910;2022-10-12T14:10:17;19.20;99.90
15044;DHT22;7619;48.562;8.910;2022-10-12T14:12:49;18.90;95.80
15044;DHT22;7619;48.562;8.910;2022-10-12T14:15:20;19.00;84.90
15044;DHT22;7619;48.562;8.910;2022-10-12T14:17:50;20.90;95.10
15044;DHT22;7619;48.562;8.910;2022-10-12T14:20:29;18.90;99.90
15044;DHT22;7619;48.562;8.910;2022-10-12T14:23:00;18.80;99.90
15044;DHT22;7619;48.562;8.910;2022-10-12T14:25:30;19.00;99.90
15044;DHT22;7619;48.562;8.910;2022-10-12T14:28:02;19.10;99.90
15044;DHT22;7619;48.562;8.910;2022-10-12T14:30:33;19.10;99.90
15044;DHT22;7619;48.562;8.910;2022-10-12T14:33:18;19.10;99.90
15044;DHT22;7619;48.562;8.910;2022-10-12T14:35:43;18.90;99.90
15044;DHT22;7619;48.562;8.910;2022-10-12T14:38:38;18.80;99.90
15044;DHT22;7619;48.562;8.910;2022-10-12T14:41:32;18.70;99.90
15044;DHT22;7619;48.562;8.910;2022-10-12T14:46:49;18.40;99.90
15044;DHT22;7619;48.562;8.910;2022-10-12T14:54:29;18.00;99.90
15044;DHT22;7619;48.562;8.910;2022-10-12T14:57:00;18.00;99.90
15044;DHT22;7619;48.562;8.910;2022-10-12T15:02:13;17.90;99.90
15044;DHT22;7619;48.562;8.910;2022-10-12T15:04:43;17.90;99.90
15044;DHT22;7619;48.562;8.910;2022-10-12T15:07:15;17.80;99.90
15044;DHT22;7619;48.562;8.910;2022-10-12T15:09:44;17.70;99.90
15044;DHT22;7619;48.562;8.910;2022-10-12T15:12:16;17.60;99.90
15044;DHT22;7619;48.562;8.910;2022-10-12T15:14:45;17.50;99.90
15044;DHT22;7619;48.562;8.910;2022-10-12T15:17:17;17.40;1.00
15044;DHT22;7619;48.562;8.910;2022-10-12T15:19:47;17.40;1.00
15044;DHT22;7619;48.562;8.910;2022-10-12T15:22:18;17.30;1.00
15044;DHT22;7619;48.562;8.910;2022-10-12T15:24:48;17.30;1.00
15044;DHT22;7619;48.562;8.910;2022-10-12T15:27:17;17.20;1.00
15044;DHT22;7619;48.562;8.910;2022-10-12T15:29:46;17.10;1.00
15044;DHT22;7619;48.562;8.910;2022-10-12T15:32:16;17.10;1.00
15044;DHT22;7619;48.562;8.910;2022-10-12T15:34:45;17.10;1.00
15044;DHT22;7619;48.562;8.910;2022-10-12T15:37:14;17.00;57.70
15044;DHT22;7619;48.562;8.910;2022-10-12T15:39:43;16.90;29.80
15044;DHT22;7619;48.562;8.910;2022-10-12T15:42:12;16.90;99.90
15044;DHT22;7619;48.562;8.910;2022-10-12T15:44:41;16.80;99.90
15044;DHT22;7619;48.562;8.910;2022-10-12T15:47:10;16.80;1.00
15044;DHT22;7619;48.562;8.910;2022-10-12T15:49:39;16.70;1.00
15044;DHT22;7619;48.562;8.910;2022-10-12T15:52:09;16.70;1.00
15044;DHT22;7619;48.562;8.910;2022-10-12T15:54:38;16.70;99.90
15044;DHT22;7619;48.562;8.910;2022-10-12T15:57:07;16.60;99.90
15044;DHT22;7619;48.562;8.910;2022-10-12T15:59:36;16.50;99.90
15044;DHT22;7619;48.562;8.910;2022-10-12T16:02:10;16.40;1.00
15044;DHT22;7619;48.562;8.910;2022-10-12T16:07:17;16.30;80.80
15044;DHT22;7619;48.562;8.910;2022-10-12T16:09:51;16.30;9.10
15044;DHT22;7619;48.562;8.910;2022-10-12T16:12:21;16.20;1.00
15044;DHT22;7619;48.562;8.910;2022-10-12T16:14:50;16.10;99.90
15044;DHT22;7619;48.562;8.910;2022-10-12T16:17:19;16.00;1.00
15044;DHT22;7619;48.562;8.910;2022-10-12T16:19:48;15.90;1.00
15044;DHT22;7619;48.562;8.910;2022-10-12T16:24:55;15.80;1.00
15044;DHT22;7619;48.562;8.910;2022-10-12T16:30:03;15.60;99.90
15044;DHT22;7619;48.562;8.910;2022-10-12T16:32:33;15.50;99.90
15044;DHT22;7619;48.562;8.910;2022-10-12T16:35:02;15.40;1.00
15044;DHT22;7619;48.562;8.910;2022-10-12T16:37:33;15.40;83.20
15044;DHT22;7619;48.562;8.910;2022-10-12T16:40:02;15.30;1.00
15044;DHT22;7619;48.562;8.910;2022-10-12T16:42:32;15.30;99.90
15044;DHT22;7619;48.562;8.910;2022-10-12T16:45:01;15.30;1.00
15044;DHT22;7619;48.562;8.910;2022-10-12T16:47:30;15.20;1.00
15044;DHT22;7619;48.562;8.910;2022-10-12T16:49:59;15.10;99.90
15044;DHT22;7619;48.562;8.910;2022-10-12T16:52:28;15.10;99.90
15044;DHT22;7619;48.562;8.910;2022-10-12T16:54:59;15.10;1.00
15044;DHT22;7619;48.562;8.910;2022-10-12T16:57:28;15.10;1.00
15044;DHT22;7619;48.562;8.910;2022-10-12T16:59:57;15.10;99.90
15044;DHT22;7619;48.562;8.910;2022-10-12T17:05:04;15.00;99.90
15044;DHT22;7619;48.562;8.910;2022-10-12T17:07:33;14.90;1.00
15044;DHT22;7619;48.562;8.910;2022-10-12T17:10:02;14.80;99.90
15044;DHT22;7619;48.562;8.910;2022-10-12T17:12:31;14.70;1.00
15044;DHT22;7619;48.562;8.910;2022-10-12T17:15:01;14.70;99.90
15044;DHT22;7619;48.562;8.910;2022-10-12T17:17:30;14.60;99.90
15044;DHT22;7619;48.562;8.910;2022-10-12T17:19:59;14.50;99.90
15044;DHT22;7619;48.562;8.910;2022-10-12T17:22:28;14.50;99.90
15044;DHT22;7619;48.562;8.910;2022-10-12T17:24:57;14.40;99.90
15044;DHT22;7619;48.562;8.910;2022-10-12T17:27:26;14.40;99.90
15044;DHT22;7619;48.562;8.910;2022-10-12T17:29:55;14.30;99.90
15044;DHT22;7619;48.562;8.910;2022-10-12T17:32:25;14.30;99.90
15044;DHT22;7619;48.562;8.910;2022-10-12T17:34:54;14.20;99.90
15044;DHT22;7619;48.562;8.910;2022-10-12T17:37:23;14.10;99.90
15044;DHT22;7619;48.562;8.910;2022-10-12T17:39:52;14.10;99.90
15044;DHT22;7619;48.562;8.910;2022-10-12T17:42:21;13.90;99.90
15044;DHT22;7619;48.562;8.910;2022-10-12T17:44:51;14.00;99.90
15044;DHT22;7619;48.562;8.910;2022-10-12T17:47:20;13.70;99.90
15044;DHT22;7619;48.562;8.910;2022-10-12T17:49:49;13.50;99.90
15044;DHT22;7619;48.562;8.910;2022-10-12T17:52:19;13.40;99.90
15044;DHT22;7619;48.562;8.910;2022-10-12T17:54:48;13.40;99.90
15044;DHT22;7619;48.562;8.910;2022-10-12T17:57:17;13.30;99.90
15044;DHT22;7619;48.562;8.910;2022-10-12T17:59:46;13.20;99.90
15044;DHT22;7619;48.562;8.910;2022-10-12T18:02:15;13.10;99.90
15044;DHT22;7619;48.562;8.910;2022-10-12T18:04:44;13.00;99.90
15044;DHT22;7619;48.562;8.910;2022-10-12T18:07:13;13.20;99.90
15044;DHT22;7619;48.562;8.910;2022-10-12T18:09:42;13.10;99.90
15044;DHT22;7619;48.562;8.910;2022-10-12T18:12:11;13.00;99.90
15044;DHT22;7619;48.562;8.910;2022-10-12T18:14:43;13.00;99.90
15044;DHT22;7619;48.562;8.910;2022-10-12T18:17:12;12.90;99.90
15044;DHT22;7619;48.562;8.910;2022-10-12T18:19:41;12.90;99.90
15044;DHT22;7619;48.562;8.910;2022-10-12T18:22:12;12.80;99.90
15044;DHT22;7619;48.562;8.910;2022-10-12T18:24:41;12.70;99.90
15044;DHT22;7619;48.562;8.910;2022-10-12T18:27:10;12.60;99.90
15044;DHT22;7619;48.562;8.910;2022-10-12T18:29:39;12.50;99.90
15044;DHT22;7619;48.562;8.910;2022-10-12T18:32:08;12.50;99.90
15044;DHT22;7619;48.562;8.910;2022-10-12T18:34:38;12.40;99.90
15044;DHT22;7619;48.562;8.910;2022-10-12T18:37:07;12.40;99.90
15044;DHT22;7619;48.562;8.910;2022-10-12T18:39:36;12.40;99.90
15044;DHT22;7619;48.562;8.910;2022-10-12T18:42:06;12.40;99.90
15044;DHT22;7619;48.562;8.910;2022-10-12T18:44:40;12.30;99.90
15044;DHT22;7619;48.562;8.910;2022-10-12T18:47:16;12.30;99.90
15044;DHT22;7619;48.562;8.910;2022-10-12T18:49:48;12.20;99.90
15044;DHT22;7619;48.562;8.910;2022-10-12T18:52:22;12.30;99.90
15044;DHT22;7619;48.562;8.910;2022-10-12T18:54:52;12.20;99.90
15044;DHT22;7619;48.562;8.910;2022-10-12T18:57:21;12.20;99.90
15044;DHT22;7619;48.562;8.910;2022-10-12T18:59:51;12.10;99.90
15044;DHT22;7619;48.562;8.910;2022-10-12T19:02:20;12.00;99.90
15044;DHT22;7619;48.562;8.910;2022-10-12T19:04:49;11.80;99.90
15044;DHT22;7619;48.562;8.910;2022-10-12T19:07:19;11.60;99.90
15044;DHT22;7619;48.562;8.910;2022-10-12T19:09:48;11.50;99.90
15044;DHT22;7619;48.562;8.910;2022-10-12T19:12:17;11.40;99.90
15044;DHT22;7619;48.562;8.910;2022-10-12T19:14:47;11.40;99.90
15044;DHT22;7619;48.562;8.910;2022-10-12T19:17:17;11.40;99.90
15044;DHT22;7619;48.562;8.910;2022-10-12T19:19:46;11.40;99.90
15044;DHT22;7619;48.562;8.910;2022-10-12T19:22:15;11.40;99.90
15044;DHT22;7619;48.562;8.910;2022-10-12T19:24:44;11.40;99.90
15044;DHT22;7619;48.562;8.910;2022-10-12T19:27:13;11.40;99.90
15044;DHT22;7619;48.562;8.910;2022-10-12T19:29:42;11.40;99.90
15044;DHT22;7619;48.562;8.910;2022-10-12T19:32:11;11.30;99.90
15044;DHT22;7619;48.562;8.910;2022-10-12T19:34:40;11.30;99.90
15044;DHT22;7619;48.562;8.910;2022-10-12T19:37:09;11.20;99.90